sensor_id;sensor_type;location;lat;lon;timestamp;P1;durP1;ratioP1;P2;durP2;ratioP2
80253;SDS011;69563;37.974;23.708;2023-07-13T00:01:14;11.85;;;8.63;;
80253;SDS011;69563;37.974;23.708;2023-07-13T00:03:41;16.48;;;9.27;;
80253;SDS011;69563;37.974;23.708;2023-07-13T00:06:07;11.40;;;8.48;;
80253;SDS011;69563;37.974;23.708;2023-07-13T00:08:33;12.93;;;9.68;;
80253;SDS011;69563;37.974;23.708;2023-07-13T00:11:00;12.98;;;9.85;;
80253;SDS011;69563;37.974;23.708;2023-07-13T00:13:27;13.43;;;9.60;;
80253;SDS011;69563;37.974;23.708;2023-07-13T00:15:54;14.73;;;9.80;;
80253;SDS011;69563;37.974;23.708;2023-07-13T00:18:21;14.23;;;9.25;;
80253;SDS011;69563;37.974;23.708;2023-07-13T00:20:47;11.73;;;9.15;;
80253;SDS011;69563;37.974;23.708;2023-07-13T00:23:13;12.85;;;8.75;;
80253;SDS011;69563;37.974;23.708;2023-07-13T00:25:38;14.52;;;9.93;;
80253;SDS011;69563;37.974;23.708;2023-07-13T00:28:04;13.18;;;9.60;;
80253;SDS011;69563;37.974;23.708;2023-07-13T00:30:30;12.27;;;9.20;;
80253;SDS011;69563;37.974;23.708;2023-07-13T00:32:55;13.43;;;9.48;;
80253;SDS011;69563;37.974;23.708;2023-07-13T00:35:21;13.20;;;9.80;;
80253;SDS011;69563;37.974;23.708;2023-07-13T00:37:47;11.90;;;9.45;;
80253;SDS011;69563;37.974;23.708;2023-07-13T00:40:13;12.85;;;9.23;;
80253;SDS011;69563;37.974;23.708;2023-07-13T00:42:40;16.00;;;8.82;;
80253;SDS011;69563;37.974;23.708;2023-07-13T00:50:08;11.75;;;8.38;;
80253;SDS011;69563;37.974;23.708;2023-07-13T00:52:37;12.73;;;9.10;;
80253;SDS011;69563;37.974;23.708;2023-07-13T00:55:05;12.10;;;9.25;;
80253;SDS011;69563;37.974;23.708;2023-07-13T00:57:34;11.27;;;9.15;;
80253;SDS011;69563;37.974;23.708;2023-07-13T01:00:00;12.68;;;9.73;;
80253;SDS011;69563;37.974;23.708;2023-07-13T01:02:31;14.50;;;9.32;;
80253;SDS011;69563;37.974;23.708;2023-07-13T01:04:58;13.98;;;9.73;;
80253;SDS011;69563;37.974;23.708;2023-07-13T01:07:23;13.75;;;9.18;;
80253;SDS011;69563;37.974;23.708;2023-07-13T01:09:50;10.20;;;9.00;;
80253;SDS011;69563;37.974;23.708;2023-07-13T01:12:15;10.23;;;8.65;;
80253;SDS011;69563;37.974;23.708;2023-07-13T01:14:41;14.27;;;9.75;;
80253;SDS011;69563;37.974;23.708;2023-07-13T01:17:10;12.65;;;9.05;;
80253;SDS011;69563;37.974;23.708;2023-07-13T01:19:41;11.13;;;8.82;;
80253;SDS011;69563;37.974;23.708;2023-07-13T01:22:10;12.10;;;9.10;;
80253;SDS011;69563;37.974;23.708;2023-07-13T01:24:37;11.48;;;9.05;;
80253;SDS011;69563;37.974;23.708;2023-07-13T01:27:04;13.10;;;8.60;;
80253;SDS011;69563;37.974;23.708;2023-07-13T01:29:31;13.20;;;9.23;;
80253;SDS011;69563;37.974;23.708;2023-07-13T01:31:59;10.77;;;8.93;;
80253;SDS011;69563;37.974;23.708;2023-07-13T01:34:25;12.13;;;9.43;;
80253;SDS011;69563;37.974;23.708;2023-07-13T01:36:52;11.98;;;8.75;;
80253;SDS011;69563;37.974;23.708;2023-07-13T01:39:20;13.65;;;9.63;;
80253;SDS011;69563;37.974;23.708;2023-07-13T01:41:47;14.05;;;9.13;;
80253;SDS011;69563;37.974;23.708;2023-07-13T01:44:12;12.23;;;8.88;;
80253;SDS011;69563;37.974;23.708;2023-07-13T01:46:39;11.90;;;9.10;;
80253;SDS011;69563;37.974;23.708;2023-07-13T01:49:04;10.82;;;8.80;;
80253;SDS011;69563;37.974;23.708;2023-07-13T01:51:30;11.60;;;9.00;;
80253;SDS011;69563;37.974;23.708;2023-07-13T01:53:55;12.32;;;9.48;;
80253;SDS011;69563;37.974;23.708;2023-07-13T01:56:21;13.02;;;8.98;;
80253;SDS011;69563;37.974;23.708;2023-07-13T01:58:47;11.10;;;9.13;;
80253;SDS011;69563;37.974;23.708;2023-07-13T02:01:13;9.98;;;8.23;;
80253;SDS011;69563;37.974;23.708;2023-07-13T02:03:39;11.00;;;8.52;;
80253;SDS011;69563;37.974;23.708;2023-07-13T02:06:05;10.57;;;8.32;;
80253;SDS011;69563;37.974;23.708;2023-07-13T02:08:32;12.07;;;8.93;;
80253;SDS011;69563;37.974;23.708;2023-07-13T02:10:58;10.50;;;9.27;;
80253;SDS011;69563;37.974;23.708;2023-07-13T02:13:24;10.68;;;9.10;;
80253;SDS011;69563;37.974;23.708;2023-07-13T02:15:50;12.07;;;9.68;;
80253;SDS011;69563;37.974;23.708;2023-07-13T02:18:16;13.05;;;9.48;;
80253;SDS011;69563;37.974;23.708;2023-07-13T02:20:42;11.90;;;9.10;;
80253;SDS011;69563;37.974;23.708;2023-07-13T02:23:08;11.18;;;9.60;;
80253;SDS011;69563;37.974;23.708;2023-07-13T02:25:34;11.95;;;8.65;;
80253;SDS011;69563;37.974;23.708;2023-07-13T02:28:00;11.60;;;9.27;;
80253;SDS011;69563;37.974;23.708;2023-07-13T02:30:26;11.43;;;9.00;;
80253;SDS011;69563;37.974;23.708;2023-07-13T02:32:54;11.52;;;9.88;;
80253;SDS011;69563;37.974;23.708;2023-07-13T02:35:23;13.35;;;9.52;;
80253;SDS011;69563;37.974;23.708;2023-07-13T02:37:49;13.05;;;9.38;;
80253;SDS011;69563;37.974;23.708;2023-07-13T02:40:14;13.32;;;9.55;;
80253;SDS011;69563;37.974;23.708;2023-07-13T02:42:40;12.45;;;9.30;;
80253;SDS011;69563;37.974;23.708;2023-07-13T02:45:07;12.27;;;9.60;;
80253;SDS011;69563;37.974;23.708;2023-07-13T02:47:34;10.85;;;9.23;;
80253;SDS011;69563;37.974;23.708;2023-07-13T02:50:00;14.80;;;9.18;;
80253;SDS011;69563;37.974;23.708;2023-07-13T02:52:26;13.70;;;9.63;;
80253;SDS011;69563;37.974;23.708;2023-07-13T02:54:52;13.05;;;9.02;;
80253;SDS011;69563;37.974;23.708;2023-07-13T02:57:17;18.67;;;10.65;;
80253;SDS011;69563;37.974;23.708;2023-07-13T02:59:43;15.48;;;10.20;;
80253;SDS011;69563;37.974;23.708;2023-07-13T03:02:09;13.30;;;9.60;;
80253;SDS011;69563;37.974;23.708;2023-07-13T03:04:37;16.55;;;9.90;;
80253;SDS011;69563;37.974;23.708;2023-07-13T03:07:04;14.18;;;9.80;;
80253;SDS011;69563;37.974;23.708;2023-07-13T03:09:30;13.73;;;9.40;;
80253;SDS011;69563;37.974;23.708;2023-07-13T03:11:58;10.55;;;9.45;;
80253;SDS011;69563;37.974;23.708;2023-07-13T03:14:23;13.43;;;9.90;;
80253;SDS011;69563;37.974;23.708;2023-07-13T03:16:49;15.40;;;10.05;;
80253;SDS011;69563;37.974;23.708;2023-07-13T03:19:15;15.35;;;10.05;;
80253;SDS011;69563;37.974;23.708;2023-07-13T03:21:41;17.42;;;10.25;;
80253;SDS011;69563;37.974;23.708;2023-07-13T03:24:07;15.52;;;9.52;;
80253;SDS011;69563;37.974;23.708;2023-07-13T03:26:32;13.00;;;10.55;;
80253;SDS011;69563;37.974;23.708;2023-07-13T03:28:58;13.82;;;9.88;;
80253;SDS011;69563;37.974;23.708;2023-07-13T03:31:28;14.43;;;10.05;;
80253;SDS011;69563;37.974;23.708;2023-07-13T03:33:55;14.18;;;9.93;;
80253;SDS011;69563;37.974;23.708;2023-07-13T03:36:22;14.98;;;9.73;;
80253;SDS011;69563;37.974;23.708;2023-07-13T03:38:51;16.15;;;10.35;;
80253;SDS011;69563;37.974;23.708;2023-07-13T03:41:19;11.90;;;9.85;;
80253;SDS011;69563;37.974;23.708;2023-07-13T03:43:45;13.65;;;10.25;;
80253;SDS011;69563;37.974;23.708;2023-07-13T03:46:12;13.68;;;10.23;;
80253;SDS011;69563;37.974;23.708;2023-07-13T03:48:38;14.60;;;10.15;;
80253;SDS011;69563;37.974;23.708;2023-07-13T03:51:06;13.23;;;10.25;;
80253;SDS011;69563;37.974;23.708;2023-07-13T03:53:31;15.07;;;10.45;;
80253;SDS011;69563;37.974;23.708;2023-07-13T03:55:57;16.38;;;10.25;;
80253;SDS011;69563;37.974;23.708;2023-07-13T03:58:33;15.40;;;10.27;;
80253;SDS011;69563;37.974;23.708;2023-07-13T04:01:00;17.02;;;10.23;;
80253;SDS011;69563;37.974;23.708;2023-07-13T04:03:27;16.20;;;10.27;;
80253;SDS011;69563;37.974;23.708;2023-07-13T04:05:57;12.07;;;9.48;;
80253;SDS011;69563;37.974;23.708;2023-07-13T04:08:24;12.52;;;8.07;;
80253;SDS011;69563;37.974;23.708;2023-07-13T04:10:54;12.23;;;7.63;;
80253;SDS011;69563;37.974;23.708;2023-07-13T04:13:20;11.40;;;8.05;;
80253;SDS011;69563;37.974;23.708;2023-07-13T04:15:46;17.05;;;9.25;;
80253;SDS011;69563;37.974;23.708;2023-07-13T04:18:12;14.20;;;8.85;;
80253;SDS011;69563;37.974;23.708;2023-07-13T04:20:38;17.98;;;9.57;;
80253;SDS011;69563;37.974;23.708;2023-07-13T04:23:03;14.00;;;9.52;;
80253;SDS011;69563;37.974;23.708;2023-07-13T04:25:29;18.92;;;10.27;;
80253;SDS011;69563;37.974;23.708;2023-07-13T04:27:55;16.48;;;9.68;;
80253;SDS011;69563;37.974;23.708;2023-07-13T04:30:21;16.30;;;9.93;;
80253;SDS011;69563;37.974;23.708;2023-07-13T04:32:48;16.17;;;10.05;;
80253;SDS011;69563;37.974;23.708;2023-07-13T04:35:17;14.63;;;10.07;;
80253;SDS011;69563;37.974;23.708;2023-07-13T04:37:45;17.20;;;10.35;;
80253;SDS011;69563;37.974;23.708;2023-07-13T04:40:11;14.77;;;10.10;;
80253;SDS011;69563;37.974;23.708;2023-07-13T04:42:37;14.63;;;9.50;;
80253;SDS011;69563;37.974;23.708;2023-07-13T04:45:04;15.60;;;9.93;;
80253;SDS011;69563;37.974;23.708;2023-07-13T04:47:31;14.35;;;9.77;;
80253;SDS011;69563;37.974;23.708;2023-07-13T04:49:57;13.88;;;9.88;;
80253;SDS011;69563;37.974;23.708;2023-07-13T04:52:23;13.77;;;10.02;;
80253;SDS011;69563;37.974;23.708;2023-07-13T04:54:49;14.57;;;9.98;;
80253;SDS011;69563;37.974;23.708;2023-07-13T04:57:14;17.70;;;10.70;;
80253;SDS011;69563;37.974;23.708;2023-07-13T04:59:40;15.45;;;9.77;;
80253;SDS011;69563;37.974;23.708;2023-07-13T05:02:06;22.55;;;10.57;;
80253;SDS011;69563;37.974;23.708;2023-07-13T05:04:32;18.88;;;10.45;;
80253;SDS011;69563;37.974;23.708;2023-07-13T05:07:00;18.70;;;10.25;;
80253;SDS011;69563;37.974;23.708;2023-07-13T05:09:27;17.00;;;11.10;;
80253;SDS011;69563;37.974;23.708;2023-07-13T05:11:52;16.70;;;10.50;;
80253;SDS011;69563;37.974;23.708;2023-07-13T05:14:18;19.08;;;11.43;;
80253;SDS011;69563;37.974;23.708;2023-07-13T05:16:44;22.45;;;10.45;;
80253;SDS011;69563;37.974;23.708;2023-07-13T05:19:10;15.77;;;10.85;;
80253;SDS011;69563;37.974;23.708;2023-07-13T05:21:37;18.70;;;10.45;;
80253;SDS011;69563;37.974;23.708;2023-07-13T05:24:03;14.30;;;9.25;;
80253;SDS011;69563;37.974;23.708;2023-07-13T05:26:29;12.20;;;8.18;;
80253;SDS011;69563;37.974;23.708;2023-07-13T05:28:54;12.60;;;8.07;;
80253;SDS011;69563;37.974;23.708;2023-07-13T05:31:20;12.25;;;7.72;;
80253;SDS011;69563;37.974;23.708;2023-07-13T05:33:46;12.07;;;7.32;;
80253;SDS011;69563;37.974;23.708;2023-07-13T05:36:11;11.05;;;6.50;;
80253;SDS011;69563;37.974;23.708;2023-07-13T05:38:37;11.77;;;6.75;;
80253;SDS011;69563;37.974;23.708;2023-07-13T05:41:03;9.75;;;6.53;;
80253;SDS011;69563;37.974;23.708;2023-07-13T05:43:28;8.85;;;5.78;;
80253;SDS011;69563;37.974;23.708;2023-07-13T05:45:55;8.48;;;6.03;;
80253;SDS011;69563;37.974;23.708;2023-07-13T05:48:21;11.00;;;5.82;;
80253;SDS011;69563;37.974;23.708;2023-07-13T05:50:47;6.55;;;5.22;;
80253;SDS011;69563;37.974;23.708;2023-07-13T05:53:13;7.85;;;5.60;;
80253;SDS011;69563;37.974;23.708;2023-07-13T05:55:42;7.25;;;5.63;;
80253;SDS011;69563;37.974;23.708;2023-07-13T05:58:09;9.70;;;5.15;;
80253;SDS011;69563;37.974;23.708;2023-07-13T06:00:36;7.47;;;4.97;;
80253;SDS011;69563;37.974;23.708;2023-07-13T06:03:02;8.13;;;5.28;;
80253;SDS011;69563;37.974;23.708;2023-07-13T06:05:28;7.13;;;5.28;;
80253;SDS011;69563;37.974;23.708;2023-07-13T06:07:54;7.78;;;5.10;;
80253;SDS011;69563;37.974;23.708;2023-07-13T06:10:20;7.68;;;4.93;;
80253;SDS011;69563;37.974;23.708;2023-07-13T06:12:45;7.25;;;5.35;;
80253;SDS011;69563;37.974;23.708;2023-07-13T06:15:11;7.68;;;4.68;;
80253;SDS011;69563;37.974;23.708;2023-07-13T06:17:37;9.20;;;4.88;;
80253;SDS011;69563;37.974;23.708;2023-07-13T06:20:02;6.78;;;4.60;;
80253;SDS011;69563;37.974;23.708;2023-07-13T06:22:28;11.90;;;4.75;;
80253;SDS011;69563;37.974;23.708;2023-07-13T06:24:54;6.85;;;4.18;;
80253;SDS011;69563;37.974;23.708;2023-07-13T06:27:20;5.88;;;4.30;;
80253;SDS011;69563;37.974;23.708;2023-07-13T06:29:45;6.32;;;4.40;;
80253;SDS011;69563;37.974;23.708;2023-07-13T06:32:11;6.05;;;4.18;;
80253;SDS011;69563;37.974;23.708;2023-07-13T06:34:37;8.13;;;4.35;;
80253;SDS011;69563;37.974;23.708;2023-07-13T06:37:02;5.93;;;4.15;;
80253;SDS011;69563;37.974;23.708;2023-07-13T06:39:28;5.57;;;4.10;;
80253;SDS011;69563;37.974;23.708;2023-07-13T06:41:54;7.78;;;4.50;;
80253;SDS011;69563;37.974;23.708;2023-07-13T06:44:20;5.47;;;4.07;;
80253;SDS011;69563;37.974;23.708;2023-07-13T06:46:45;5.90;;;4.20;;
80253;SDS011;69563;37.974;23.708;2023-07-13T06:49:11;6.80;;;3.90;;
80253;SDS011;69563;37.974;23.708;2023-07-13T06:51:37;5.68;;;4.20;;
80253;SDS011;69563;37.974;23.708;2023-07-13T06:54:03;5.53;;;4.47;;
80253;SDS011;69563;37.974;23.708;2023-07-13T06:56:29;6.38;;;3.95;;
80253;SDS011;69563;37.974;23.708;2023-07-13T06:58:55;6.60;;;3.75;;
80253;SDS011;69563;37.974;23.708;2023-07-13T07:01:20;8.63;;;3.97;;
80253;SDS011;69563;37.974;23.708;2023-07-13T07:03:46;5.43;;;4.15;;
80253;SDS011;69563;37.974;23.708;2023-07-13T07:06:19;5.32;;;3.65;;
80253;SDS011;69563;37.974;23.708;2023-07-13T07:08:48;6.20;;;4.07;;
80253;SDS011;69563;37.974;23.708;2023-07-13T07:11:20;4.82;;;3.85;;
80253;SDS011;69563;37.974;23.708;2023-07-13T07:13:48;6.28;;;4.05;;
80253;SDS011;69563;37.974;23.708;2023-07-13T07:16:14;6.18;;;3.92;;
80253;SDS011;69563;37.974;23.708;2023-07-13T07:18:41;5.53;;;4.10;;
80253;SDS011;69563;37.974;23.708;2023-07-13T07:21:06;5.95;;;3.90;;
80253;SDS011;69563;37.974;23.708;2023-07-13T07:23:32;5.95;;;4.45;;
80253;SDS011;69563;37.974;23.708;2023-07-13T07:25:58;6.10;;;4.43;;
80253;SDS011;69563;37.974;23.708;2023-07-13T07:28:24;7.45;;;4.38;;
80253;SDS011;69563;37.974;23.708;2023-07-13T07:30:52;6.75;;;4.57;;
80253;SDS011;69563;37.974;23.708;2023-07-13T07:33:18;9.45;;;4.47;;
80253;SDS011;69563;37.974;23.708;2023-07-13T07:35:44;5.90;;;4.05;;
80253;SDS011;69563;37.974;23.708;2023-07-13T07:38:09;5.63;;;4.32;;
80253;SDS011;69563;37.974;23.708;2023-07-13T07:40:39;6.30;;;4.35;;
80253;SDS011;69563;37.974;23.708;2023-07-13T07:43:06;6.75;;;4.30;;
80253;SDS011;69563;37.974;23.708;2023-07-13T07:45:32;8.07;;;4.55;;
80253;SDS011;69563;37.974;23.708;2023-07-13T07:47:58;8.48;;;4.97;;
80253;SDS011;69563;37.974;23.708;2023-07-13T07:50:24;6.93;;;4.50;;
80253;SDS011;69563;37.974;23.708;2023-07-13T07:52:51;5.95;;;4.35;;
80253;SDS011;69563;37.974;23.708;2023-07-13T07:55:16;7.43;;;4.90;;
80253;SDS011;69563;37.974;23.708;2023-07-13T07:57:42;7.03;;;4.65;;
80253;SDS011;69563;37.974;23.708;2023-07-13T08:00:08;6.28;;;4.93;;
80253;SDS011;69563;37.974;23.708;2023-07-13T08:02:35;6.72;;;5.05;;
80253;SDS011;69563;37.974;23.708;2023-07-13T08:05:00;8.13;;;5.32;;
80253;SDS011;69563;37.974;23.708;2023-07-13T08:07:26;8.93;;;4.65;;
80253;SDS011;69563;37.974;23.708;2023-07-13T08:09:52;6.75;;;5.05;;
80253;SDS011;69563;37.974;23.708;2023-07-13T08:12:18;7.35;;;5.63;;
80253;SDS011;69563;37.974;23.708;2023-07-13T08:14:44;7.57;;;5.05;;
80253;SDS011;69563;37.974;23.708;2023-07-13T08:17:10;8.65;;;5.63;;
80253;SDS011;69563;37.974;23.708;2023-07-13T08:19:35;8.20;;;5.35;;
80253;SDS011;69563;37.974;23.708;2023-07-13T08:22:01;10.77;;;5.13;;
80253;SDS011;69563;37.974;23.708;2023-07-13T08:24:27;8.70;;;5.25;;
80253;SDS011;69563;37.974;23.708;2023-07-13T08:26:52;6.78;;;4.95;;
80253;SDS011;69563;37.974;23.708;2023-07-13T08:29:18;7.90;;;4.82;;
80253;SDS011;69563;37.974;23.708;2023-07-13T08:31:45;9.13;;;4.93;;
80253;SDS011;69563;37.974;23.708;2023-07-13T08:34:11;8.35;;;4.78;;
80253;SDS011;69563;37.974;23.708;2023-07-13T08:36:36;6.68;;;4.40;;
80253;SDS011;69563;37.974;23.708;2023-07-13T08:39:02;5.85;;;4.35;;
80253;SDS011;69563;37.974;23.708;2023-07-13T08:41:28;6.85;;;4.43;;
80253;SDS011;69563;37.974;23.708;2023-07-13T08:43:56;7.68;;;4.22;;
80253;SDS011;69563;37.974;23.708;2023-07-13T08:48:53;6.38;;;4.30;;
80253;SDS011;69563;37.974;23.708;2023-07-13T08:51:32;7.32;;;3.88;;
80253;SDS011;69563;37.974;23.708;2023-07-13T08:54:11;5.13;;;4.07;;
80253;SDS011;69563;37.974;23.708;2023-07-13T08:56:43;5.50;;;4.07;;
80253;SDS011;69563;37.974;23.708;2023-07-13T08:59:13;5.18;;;3.72;;
80253;SDS011;69563;37.974;23.708;2023-07-13T09:10:21;5.28;;;4.20;;
80253;SDS011;69563;37.974;23.708;2023-07-13T09:15:46;5.32;;;4.30;;
80253;SDS011;69563;37.974;23.708;2023-07-13T09:18:16;5.25;;;4.32;;
80253;SDS011;69563;37.974;23.708;2023-07-13T09:20:57;5.82;;;4.25;;
80253;SDS011;69563;37.974;23.708;2023-07-13T09:23:27;6.75;;;4.60;;
80253;SDS011;69563;37.974;23.708;2023-07-13T09:26:06;5.57;;;4.53;;
80253;SDS011;69563;37.974;23.708;2023-07-13T09:28:44;6.07;;;4.30;;
80253;SDS011;69563;37.974;23.708;2023-07-13T09:33:44;6.32;;;4.60;;
80253;SDS011;69563;37.974;23.708;2023-07-13T09:44:16;5.60;;;4.70;;
80253;SDS011;69563;37.974;23.708;2023-07-13T09:46:53;6.13;;;4.40;;
80253;SDS011;69563;37.974;23.708;2023-07-13T09:49:23;7.68;;;4.40;;
80253;SDS011;69563;37.974;23.708;2023-07-13T09:52:01;10.43;;;5.10;;
80253;SDS011;69563;37.974;23.708;2023-07-13T09:54:35;11.23;;;4.88;;
80253;SDS011;69563;37.974;23.708;2023-07-13T09:57:02;6.88;;;4.72;;
80253;SDS011;69563;37.974;23.708;2023-07-13T09:59:40;9.95;;;4.43;;
80253;SDS011;69563;37.974;23.708;2023-07-13T10:04:59;5.95;;;4.72;;
80253;SDS011;69563;37.974;23.708;2023-07-13T10:07:28;7.85;;;4.72;;
80253;SDS011;69563;37.974;23.708;2023-07-13T10:09:58;5.95;;;4.45;;
80253;SDS011;69563;37.974;23.708;2023-07-13T10:12:29;7.20;;;5.07;;
80253;SDS011;69563;37.974;23.708;2023-07-13T10:15:00;5.95;;;5.10;;
80253;SDS011;69563;37.974;23.708;2023-07-13T10:17:29;11.32;;;7.32;;
80253;SDS011;69563;37.974;23.708;2023-07-13T10:20:01;9.27;;;6.03;;
80253;SDS011;69563;37.974;23.708;2023-07-13T10:25:20;9.95;;;5.97;;
80253;SDS011;69563;37.974;23.708;2023-07-13T10:27:51;7.57;;;5.90;;
80253;SDS011;69563;37.974;23.708;2023-07-13T10:30:21;6.32;;;5.22;;
80253;SDS011;69563;37.974;23.708;2023-07-13T10:32:59;7.07;;;5.47;;
80253;SDS011;69563;37.974;23.708;2023-07-13T10:35:35;7.95;;;5.35;;
80253;SDS011;69563;37.974;23.708;2023-07-13T10:38:22;7.00;;;5.13;;
80253;SDS011;69563;37.974;23.708;2023-07-13T10:43:25;6.65;;;4.78;;
80253;SDS011;69563;37.974;23.708;2023-07-13T10:45:53;5.50;;;4.85;;
80253;SDS011;69563;37.974;23.708;2023-07-13T10:48:20;7.70;;;4.85;;
80253;SDS011;69563;37.974;23.708;2023-07-13T10:50:49;6.95;;;5.18;;
80253;SDS011;69563;37.974;23.708;2023-07-13T10:58:21;6.32;;;5.05;;
80253;SDS011;69563;37.974;23.708;2023-07-13T11:03:32;5.97;;;4.60;;
80253;SDS011;69563;37.974;23.708;2023-07-13T11:06:51;7.10;;;4.72;;
80253;SDS011;69563;37.974;23.708;2023-07-13T11:08:54;5.57;;;4.30;;
80253;SDS011;69563;37.974;23.708;2023-07-13T11:18:48;7.85;;;5.00;;
80253;SDS011;69563;37.974;23.708;2023-07-13T11:21:16;6.45;;;4.60;;
80253;SDS011;69563;37.974;23.708;2023-07-13T11:23:53;6.97;;;4.60;;
80253;SDS011;69563;37.974;23.708;2023-07-13T11:31:42;8.63;;;4.65;;
80253;SDS011;69563;37.974;23.708;2023-07-13T11:34:16;6.32;;;4.35;;
80253;SDS011;69563;37.974;23.708;2023-07-13T11:36:48;6.10;;;4.60;;
80253;SDS011;69563;37.974;23.708;2023-07-13T11:39:23;7.50;;;4.30;;
80253;SDS011;69563;37.974;23.708;2023-07-13T11:41:56;7.32;;;4.72;;
80253;SDS011;69563;37.974;23.708;2023-07-13T11:44:28;7.28;;;4.70;;
80253;SDS011;69563;37.974;23.708;2023-07-13T11:46:55;5.70;;;4.57;;
80253;SDS011;69563;37.974;23.708;2023-07-13T11:49:26;5.78;;;4.45;;
80253;SDS011;69563;37.974;23.708;2023-07-13T11:51:55;23.45;;;7.55;;
80253;SDS011;69563;37.974;23.708;2023-07-13T11:56:59;13.95;;;6.70;;
80253;SDS011;69563;37.974;23.708;2023-07-13T11:59:31;11.85;;;6.53;;
80253;SDS011;69563;37.974;23.708;2023-07-13T12:01:58;10.95;;;6.38;;
80253;SDS011;69563;37.974;23.708;2023-07-13T12:04:25;11.07;;;6.47;;
80253;SDS011;69563;37.974;23.708;2023-07-13T12:07:04;11.18;;;7.60;;
80253;SDS011;69563;37.974;23.708;2023-07-13T12:09:33;9.88;;;6.63;;
80253;SDS011;69563;37.974;23.708;2023-07-13T12:11:58;8.45;;;6.00;;
80253;SDS011;69563;37.974;23.708;2023-07-13T12:14:27;8.75;;;6.10;;
80253;SDS011;69563;37.974;23.708;2023-07-13T12:16:53;11.50;;;6.53;;
80253;SDS011;69563;37.974;23.708;2023-07-13T12:19:20;10.32;;;6.40;;
80253;SDS011;69563;37.974;23.708;2023-07-13T12:21:49;9.40;;;6.13;;
80253;SDS011;69563;37.974;23.708;2023-07-13T12:24:18;7.95;;;5.70;;
80253;SDS011;69563;37.974;23.708;2023-07-13T12:26:50;8.65;;;5.90;;
80253;SDS011;69563;37.974;23.708;2023-07-13T12:29:27;6.70;;;5.47;;
80253;SDS011;69563;37.974;23.708;2023-07-13T12:31:53;7.57;;;5.90;;
80253;SDS011;69563;37.974;23.708;2023-07-13T12:34:21;7.15;;;5.78;;
80253;SDS011;69563;37.974;23.708;2023-07-13T12:36:56;6.97;;;4.97;;
80253;SDS011;69563;37.974;23.708;2023-07-13T12:42:08;6.50;;;5.32;;
80253;SDS011;69563;37.974;23.708;2023-07-13T12:44:43;6.47;;;4.97;;
80253;SDS011;69563;37.974;23.708;2023-07-13T12:47:11;6.80;;;5.57;;
80253;SDS011;69563;37.974;23.708;2023-07-13T12:49:57;6.22;;;4.80;;
80253;SDS011;69563;37.974;23.708;2023-07-13T12:52:28;6.20;;;5.20;;
80253;SDS011;69563;37.974;23.708;2023-07-13T12:54:57;7.07;;;4.82;;
80253;SDS011;69563;37.974;23.708;2023-07-13T12:57:28;6.20;;;4.75;;
80253;SDS011;69563;37.974;23.708;2023-07-13T12:59:53;6.57;;;4.60;;
80253;SDS011;69563;37.974;23.708;2023-07-13T13:02:26;6.35;;;4.85;;
80253;SDS011;69563;37.974;23.708;2023-07-13T13:04:56;7.03;;;5.00;;
80253;SDS011;69563;37.974;23.708;2023-07-13T13:07:23;5.72;;;4.63;;
80253;SDS011;69563;37.974;23.708;2023-07-13T13:09:49;7.78;;;4.57;;
80253;SDS011;69563;37.974;23.708;2023-07-13T13:12:15;6.30;;;4.53;;
80253;SDS011;69563;37.974;23.708;2023-07-13T13:14:42;5.38;;;4.38;;
80253;SDS011;69563;37.974;23.708;2023-07-13T13:17:21;5.55;;;4.43;;
80253;SDS011;69563;37.974;23.708;2023-07-13T13:19:52;5.65;;;4.20;;
80253;SDS011;69563;37.974;23.708;2023-07-13T13:22:19;6.55;;;4.40;;
80253;SDS011;69563;37.974;23.708;2023-07-13T13:24:45;5.72;;;4.10;;
80253;SDS011;69563;37.974;23.708;2023-07-13T13:27:20;4.90;;;4.30;;
80253;SDS011;69563;37.974;23.708;2023-07-13T13:29:48;6.60;;;4.40;;
80253;SDS011;69563;37.974;23.708;2023-07-13T13:32:17;5.10;;;4.07;;
80253;SDS011;69563;37.974;23.708;2023-07-13T13:34:43;6.25;;;4.20;;
80253;SDS011;69563;37.974;23.708;2023-07-13T13:37:19;4.97;;;3.97;;
80253;SDS011;69563;37.974;23.708;2023-07-13T13:39:47;5.32;;;4.07;;
80253;SDS011;69563;37.974;23.708;2023-07-13T13:42:14;5.75;;;3.90;;
80253;SDS011;69563;37.974;23.708;2023-07-13T13:44:39;5.30;;;4.20;;
80253;SDS011;69563;37.974;23.708;2023-07-13T13:47:17;5.00;;;3.78;;
80253;SDS011;69563;37.974;23.708;2023-07-13T13:49:56;5.57;;;4.00;;
80253;SDS011;69563;37.974;23.708;2023-07-13T13:52:22;5.35;;;3.92;;
80253;SDS011;69563;37.974;23.708;2023-07-13T13:54:48;4.97;;;3.80;;
80253;SDS011;69563;37.974;23.708;2023-07-13T13:57:14;5.10;;;4.07;;
80253;SDS011;69563;37.974;23.708;2023-07-13T13:59:40;4.75;;;3.47;;
80253;SDS011;69563;37.974;23.708;2023-07-13T14:02:15;4.70;;;3.45;;
80253;SDS011;69563;37.974;23.708;2023-07-13T14:04:57;5.53;;;3.55;;
80253;SDS011;69563;37.974;23.708;2023-07-13T14:07:25;4.38;;;3.60;;
80253;SDS011;69563;37.974;23.708;2023-07-13T14:09:52;5.55;;;3.75;;
80253;SDS011;69563;37.974;23.708;2023-07-13T14:12:19;4.43;;;3.42;;
80253;SDS011;69563;37.974;23.708;2023-07-13T14:14:45;4.97;;;3.88;;
80253;SDS011;69563;37.974;23.708;2023-07-13T14:17:20;5.45;;;3.58;;
80253;SDS011;69563;37.974;23.708;2023-07-13T14:19:49;6.45;;;3.70;;
80253;SDS011;69563;37.974;23.708;2023-07-13T14:22:16;4.45;;;3.42;;
80253;SDS011;69563;37.974;23.708;2023-07-13T14:24:43;4.55;;;3.38;;
80253;SDS011;69563;37.974;23.708;2023-07-13T14:27:10;5.95;;;3.58;;
80253;SDS011;69563;37.974;23.708;2023-07-13T14:29:36;5.15;;;3.35;;
80253;SDS011;69563;37.974;23.708;2023-07-13T14:32:02;4.72;;;3.60;;
80253;SDS011;69563;37.974;23.708;2023-07-13T14:34:29;4.88;;;3.70;;
80253;SDS011;69563;37.974;23.708;2023-07-13T14:36:55;4.80;;;3.40;;
80253;SDS011;69563;37.974;23.708;2023-07-13T14:39:24;4.65;;;3.53;;
80253;SDS011;69563;37.974;23.708;2023-07-13T14:41:51;4.80;;;3.40;;
80253;SDS011;69563;37.974;23.708;2023-07-13T14:44:29;4.90;;;3.47;;
80253;SDS011;69563;37.974;23.708;2023-07-13T14:46:56;4.68;;;3.65;;
80253;SDS011;69563;37.974;23.708;2023-07-13T14:51:56;4.80;;;3.63;;
80253;SDS011;69563;37.974;23.708;2023-07-13T14:54:24;4.47;;;3.30;;
80253;SDS011;69563;37.974;23.708;2023-07-13T14:56:49;4.78;;;3.70;;
80253;SDS011;69563;37.974;23.708;2023-07-13T14:59:15;5.75;;;3.45;;
80253;SDS011;69563;37.974;23.708;2023-07-13T15:01:43;4.80;;;3.63;;
80253;SDS011;69563;37.974;23.708;2023-07-13T15:04:10;4.65;;;3.72;;
80253;SDS011;69563;37.974;23.708;2023-07-13T15:06:55;5.95;;;3.95;;
80253;SDS011;69563;37.974;23.708;2023-07-13T15:09:22;6.43;;;3.80;;
80253;SDS011;69563;37.974;23.708;2023-07-13T15:11:51;5.00;;;3.65;;
80253;SDS011;69563;37.974;23.708;2023-07-13T15:14:17;5.10;;;3.90;;
80253;SDS011;69563;37.974;23.708;2023-07-13T15:16:43;4.68;;;3.85;;
80253;SDS011;69563;37.974;23.708;2023-07-13T15:19:10;4.95;;;4.28;;
80253;SDS011;69563;37.974;23.708;2023-07-13T15:21:36;4.88;;;3.88;;
80253;SDS011;69563;37.974;23.708;2023-07-13T15:24:02;4.82;;;3.72;;
80253;SDS011;69563;37.974;23.708;2023-07-13T15:26:28;5.60;;;4.20;;
80253;SDS011;69563;37.974;23.708;2023-07-13T15:28:55;6.07;;;4.38;;
80253;SDS011;69563;37.974;23.708;2023-07-13T15:31:21;5.50;;;4.30;;
80253;SDS011;69563;37.974;23.708;2023-07-13T15:33:49;6.63;;;5.40;;
80253;SDS011;69563;37.974;23.708;2023-07-13T15:36:17;6.07;;;5.43;;
80253;SDS011;69563;37.974;23.708;2023-07-13T15:38:44;6.45;;;5.22;;